Last 365 Observations

Las Positas

Daily Data | America/Los_Angeles
as of 5/26/24 5:04 PM PDT
Date Daily Max Temp (°F) Time of Max Temp Daily Min Temp (°F) Time of Min Temp Daily Rain (In) Month Precip (In) Season Precip (In) Daily Max Wind (mph) Time of Max Wind Max Wind Dir (°) Wind Run (Miles) Dew Pt (°F) Max RH (%) Min RH (%) HDDs (°F) CDDs (°F) GDDs (DL) Seas GDDs (DL) Hrs 70-85F (hrs) Hrs > 95F (hrs) Powdery Mildew Stress (pts) Hrs <= 32F (hrs) Chilling <=45F (hrs) Chilling <=45F Seas (hrs) Storm Total (In) Daily Max Rain Intensity (In/Hr) Time of Max Rain Intensity Max 1 Min Rain (In) Max 1 Min Rain Time Max 15 Min Rain (In) Max 15 Min Precip Time Max 60 Min Rain (In) Max 60 Min Rain Time Heat Index Max (°F) Heat Index Max Time Min Wind Chill (°F) Wind Chill Time MinBV Day (V)
5/25/24 63.4 1610 48.1 0059 0.00 0.54 14.62 22.4 1728 WNW | 290 175.4 46.6 92 50 0.0 9.2 5.5 494 0.00 0.00 80 0.0 0.0 - - - - - - - - - - - - 45.5 2314 13.4
5/24/24 60.8 1143 48.4 0344 0.00 0.54 14.62 25.6 1314 SW | 233 196.8 45.0 86 53 0.0 10.4 4.5 488 0.00 0.00 90 0.0 0.0 - - - - - - - - - - - - 43.6 0346 13.4
5/23/24 75.7 1424 46.9 0609 0.00 0.54 14.62 20.0 1550 WSW | 242 122.9 41.8 84 20 0.0 3.7 10.0 484 6.83 0.00 100 0.0 0.0 - - - - - - - - - - - - 44.9 0023 13.3
5/22/24 77.7 1351 51.1 0058 0.00 0.54 14.62 19.3 1602 WSW | 251 120.3 46.5 80 29 0.0 0.6 12.4 474 7.12 0.00 100 0.0 0.0 - - - - - - - - - - - - - - 13.2
5/21/24 82.8 1520 47.8 0609 0.00 0.54 14.62 22.4 1708 WSW | 249 85.8 42.2 87 15 0.3 0.0 15.4 462 9.73 0.00 80 0.0 0.0 - - - - - - - - - - 80.5 1520 46.9 0534 13.2
5/20/24 76.2 1526 47.1 0506 0.00 0.54 14.62 15.8 1608 SW | 236 99.6 43.2 88 29 0.0 3.3 11.8 446 7.96 0.00 60 0.0 0.0 - - - - - - - - - - - - 43.6 0423 13.3
5/19/24 73.6 1523 50.0 0038 0.00 0.54 14.62 20.8 1708 WSW | 244 137.1 45.2 86 32 0.0 3.2 9.5 434 3.42 0.00 40 0.0 0.0 - - - - - - - - - - - - 46.3 0039 13.3
5/18/24 73.5 1442 52.6 0129 0.00 0.54 14.62 25.0 1848 WNW | 302 164.7 50.7 92 47 0.0 2.0 9.7 425 2.77 0.00 50 0.0 0.0 - - - - - - - - - - - - - - 13.3
5/17/24 72.7 1706 51.4 0520 0.00 0.54 14.62 18.0 1541 W | 260 151.0 50.1 92 44 0.0 2.9 9.9 415 4.16 0.00 60 0.0 0.0 - - - - - - - - - - - - - - 13.3
5/16/24 75.3 1440 52.9 0128 0.00 0.54 14.62 23.7 1639 W | 281 166.6 51.3 93 43 0.0 0.9 11.1 405 5.75 0.00 70 0.0 0.0 - - - - - - - - - - - - - - 13.3
5/15/24 78.6 1412 51.2 0520 0.00 0.54 14.62 18.8 1536 WNW | 286 135.8 50.0 94 36 0.0 0.1 12.1 394 7.07 0.00 80 0.0 0.0 - - - - - - - - - - - - - - 13.2
5/14/24 81.1 1555 49.3 0316 0.00 0.54 14.62 18.6 1728 W | 269 110.9 47.6 94 22 0.2 0.0 13.0 382 7.91 0.00 60 0.0 0.0 - - - - - - - - - - 80.0 - 45.8 0445 13.2
5/13/24 74.2 1452 48.8 0625 0.00 0.54 14.62 21.0 1621 WSW | 253 145.3 47.2 90 29 0.0 3.5 9.4 369 4.74 0.00 40 0.0 0.0 - - - - - - - - - - - - 43.6 0421 13.3
5/12/24 82.0 1525 52.3 0534 0.00 0.54 14.62 15.6 1742 WNW | 291 103.8 49.9 93 26 2.1 0.0 14.0 360 7.80 0.00 50 0.0 0.0 - - - - - - - - - - 80.9 1526 - - 13.2
5/11/24 87.4 1411 51.6 0600 0.00 0.54 14.62 19.1 1617 WSW | 258 84.8 46.6 76 22 4.5 0.0 18.9 346 5.13 0.00 30 0.0 0.0 - - - - - - - - - - 84.2 1411 - - 13.1
5/10/24 87.5 1623 49.2 0609 0.00 0.54 14.62 15.8 1913 WNW | 286 60.1 43.1 77 15 3.4 0.0 19.0 327 4.86 0.00 40 0.0 0.0 - - - - - - - - - - 84.1 1447 48.2 0549 13.1
5/9/24 81.9 1652 52.3 0610 0.00 0.54 14.62 21.3 1030 ENE | 63 109.1 36.3 59 17 2.1 0.0 17.8 308 10.45 0.00 50 0.0 0.0 - - - - - - - - - - 80.0 - - - 13.2
5/8/24 75.6 1634 47.8 0243 0.00 0.54 14.62 30.7 1130 NNE | 18 189.3 30.1 82 14 0.0 3.3 15.3 290 7.58 0.00 30 0.0 0.0 - - - - - - - - - - - - 45.6 0213 13.3
5/7/24 71.9 1706 45.7 0614 0.00 0.54 14.62 16.0 1724 W | 278 87.3 42.1 92 21 0.0 6.2 8.0 275 1.56 0.00 10 0.0 0.0 - - - - - - - - - - - - 42.4 0446 13.3
5/6/24 65.9 1417 40.9 0550 0.00 0.54 14.62 20.0 1815 SW | 235 112.8 42.8 91 34 0.0 11.6 5.5 267 0.00 0.00 20 0.0 3.7 - - - - - - - - - - - - 38.7 0621 13.4
5/5/24 61.2 1504 42.6 0626 0.00 0.54 14.62 21.3 1610 WSW | 249 136.5 38.6 89 39 0.0 13.1 3.0 261 0.00 0.00 30 0.0 3.0 - - 0.12 0101 - - 0.01 0103 0.05 0128 - - 38.2 0318 13.4
5/4/24 55.0 0936 45.5 1340 0.54 0.54 14.62 30.0 1032 SW | 236 196.6 44.8 93 59 0.0 14.7 1.9 258 0.00 0.00 40 0.0 0.0 - 0.54 1.12 1030 0.02 1031 0.06 1137 0.19 1129 - - 38.1 1344 13.5
5/3/24 76.1 1435 50.6 0411 0.00 0.00 14.08 20.6 2243 WSW | 238 119.6 47.2 94 26 0.0 1.6 9.7 256 5.28 0.00 50 0.0 0.0 - - - - - - - - - - - - - - 13.3
5/2/24 74.9 1350 45.4 0615 0.00 0.00 14.08 21.3 1708 SW | 232 98.0 46.0 90 35 0.0 4.9 10.4 247 6.74 0.00 60 0.0 0.0 - - - - - - - - - - - - 43.8 0512 13.3
5/1/24 77.9 1645 41.8 0519 0.00 0.00 14.08 16.7 1210 NNW | 346 80.7 35.5 90 9 0.0 5.2 11.3 236 6.97 0.00 40 0.0 3.9 - - - - - - - - - - - - 39.4 0614 13.2
4/30/24 71.5 1502 42.5 0632 0.00 1.34 14.08 18.2 1347 WSW | 247 76.3 43.1 91 33 0.0 8.0 7.7 225 1.37 0.00 20 0.0 3.0 - - - - - - - - - - - - 42.5 0632 13.3
4/29/24 71.3 1454 45.8 0617 0.00 1.34 14.08 19.7 1525 WNW | 282 93.8 44.1 92 30 0.0 6.5 7.9 217 1.40 0.00 30 0.0 0.0 - - - - - - - - - - - - 45.3 0345 13.3
4/28/24 69.7 1349 47.1 0447 0.00 1.34 14.08 21.5 1654 SW | 230 129.0 47.1 92 42 0.0 6.6 7.6 209 0.00 0.00 40 0.0 0.0 - - - - - - - - - - - - 44.5 0332 13.3
4/27/24 68.8 1456 45.8 0648 0.00 1.34 14.08 21.3 1647 WSW | 241 100.7 45.1 93 39 0.0 7.7 6.0 202 0.00 0.00 50 0.0 0.0 - - - - - - - - - - - - 44.0 0645 13.3
4/26/24 64.2 1300 49.2 0053 0.00 1.34 14.08 28.3 1426 WSW | 237 190.1 47.6 94 51 0.0 8.3 6.3 196 0.00 0.00 60 0.0 0.0 - - - - - - - - - - - - 47.8 0055 13.4
4/25/24 60.8 1455 49.6 0256 0.00 1.34 14.08 23.7 1746 W | 259 171.7 47.0 89 58 0.0 9.8 4.7 190 0.00 0.00 70 0.0 0.0 - - - - - - - - - - - - 46.7 0231 13.4
4/24/24 64.8 1422 52.6 0059 0.00 1.34 14.08 17.1 1810 WSW | 257 132.3 43.5 84 41 0.0 6.3 7.2 185 0.00 0.00 80 0.0 0.0 - - - - - - - - - - - - - - 13.4
4/23/24 64.7 1623 52.1 0129 0.00 1.34 14.08 23.7 1204 WSW | 241 199.5 44.5 80 47 0.0 6.6 7.3 178 0.00 0.00 90 0.0 0.0 - - - - - - - - - - - - - - 13.4
4/22/24 84.5 1355 51.9 0630 0.00 1.34 14.08 21.7 1812 WNW | 288 109.6 50.0 89 27 3.2 0.0 13.4 170 7.49 0.00 100 0.0 0.0 - - - - - - - - - - 82.4 1355 - - 13.2
4/21/24 83.1 1710 45.0 0602 0.00 1.34 14.08 9.4 1510 NE | 44 45.7 49.1 87 31 0.0 0.9 14.8 157 8.99 0.00 80 0.0 0.0 - - - - - - - - - - 82.3 1716 43.6 0604 13.2
4/20/24 75.2 1512 48.2 0519 0.00 1.34 14.08 16.2 1617 WSW | 238 98.3 45.5 94 32 0.0 3.3 9.6 142 4.99 0.00 60 0.0 0.0 - - - - - - - - - - - - 43.8 0613 13.3
4/19/24 72.8 1543 47.5 0611 0.00 1.34 14.08 18.6 1717 W | 267 100.6 46.4 92 38 0.0 4.8 8.3 132 2.77 0.00 70 0.0 0.0 - - - - - - - - - - - - 45.2 0617 13.3
4/18/24 80.0 1418 50.7 0629 0.00 1.34 14.08 15.6 1455 W | 280 64.4 48.2 91 30 0.4 0.0 13.5 124 8.25 0.00 80 0.0 0.0 - - - - - - - - - - 80.0 - - - 13.2
4/17/24 76.7 1557 48.8 0601 0.00 1.34 14.08 15.6 1334 ENE | 63 62.3 51.3 90 44 0.0 2.2 12.7 110 8.25 0.00 60 0.0 0.0 - - - - - - - - - - - - 48.6 0618 13.2
4/16/24 76.1 1700 44.3 0632 0.00 1.34 14.08 13.4 1732 W | 262 44.3 48.0 94 37 0.0 4.8 10.7 98 6.04 0.00 40 0.0 0.7 - - - - - - - - - - - - 43.0 0434 13.2
4/15/24 69.8 1718 48.2 0446 0.00 1.34 14.08 12.1 1814 WSW | 252 56.2 45.7 86 43 0.0 6.0 5.7 87 0.00 0.00 20 0.0 0.0 - - - - - - - - - - - - 45.8 0652 13.3
4/14/24 58.9 1514 42.6 0237 0.09 1.34 14.08 23.0 0424 ENE | 62 143.7 42.0 94 48 0.0 14.3 2.1 81 0.00 0.00 30 0.0 6.6 - 0.43 0.08 0204 0.01 0329 0.02 0259 0.06 0247 - - 33.9 0424 13.4
4/13/24 56.3 0235 42.6 2243 0.34 1.25 13.99 21.0 0454 WNW | 296 157.5 41.9 92 55 0.0 15.6 0.9 79 0.00 0.00 40 0.0 8.4 - 0.34 0.24 0528 0.01 1949 0.04 0557 0.14 0558 - - 35.0 2039 13.5
4/12/24 62.8 1725 48.4 0422 0.00 0.91 13.65 27.2 1849 SW | 233 166.6 44.2 88 49 0.0 9.4 5.5 78 0.00 0.00 50 0.0 0.0 - - - - - - - - - - - - 44.3 0617 13.4
4/11/24 83.0 1318 49.2 0633 0.00 0.91 13.65 15.1 1738 W | 269 65.4 47.5 88 19 1.1 0.0 15.2 73 9.26 0.00 60 0.0 0.0 - - - - - - - - - - 82.1 1320 47.6 0632 13.2
4/10/24 78.3 1633 45.5 0644 0.00 0.91 13.65 13.8 1253 NE | 47 61.3 47.7 84 33 0.0 3.1 12.7 58 8.08 0.00 0 0.0 0.0 - - - - - - - - - - - - 45.4 0457 13.2
4/9/24 77.8 1611 42.6 0556 0.00 0.91 13.65 15.1 1747 WSW | 239 54.3 41.7 85 28 0.0 4.8 10.8 45 6.84 0.00 0 0.0 3.6 - - - - - - - - - - - - 40.4 0700 13.2
4/8/24 70.1 1339 37.7 0623 0.00 0.91 13.65 14.7 1624 NNE | 23 67.4 37.8 93 20 0.0 11.1 7.0 34 0.02 0.00 0 0.0 7.0 - - - - - - - - - - - - 34.7 0613 13.3
4/7/24 61.8 1509 35.9 0636 0.00 0.91 13.65 20.6 1650 W | 261 74.4 38.1 94 33 0.0 16.2 3.3 27 0.00 0.00 0 0.0 8.5 - - - - - - - - - - - - 32.7 0626 13.4
4/6/24 59.1 1511 34.7 0645 0.00 0.91 13.65 16.0 1306 WSW | 238 93.2 34.4 94 25 0.0 18.1 2.1 24 0.00 0.00 0 0.0 9.4 - - - - - - - - - - - - 29.3 0644 13.4
4/5/24 55.3 1429 35.6 0018 0.41 0.91 13.65 27.8 1806 N | 1 84.1 36.0 93 40 0.0 19.6 0.3 22 0.00 0.00 0 0.0 15.3 - 0.91 1.90 1640 0.03 1641 0.13 1648 0.30 1717 - - 31.6 0015 13.5
4/4/24 53.7 1641 38.8 0031 0.50 0.50 13.24 34.8 1239 SSW | 204 140.0 35.9 90 38 0.0 18.8 0.1 21 0.00 0.00 0 0.0 10.8 - 0.50 0.53 1020 0.01 2325 0.07 1029 0.16 2038 - - 32.2 1023 13.6
4/3/24 62.5 1407 47.2 0059 0.00 0.00 12.74 29.4 1857 WSW | 250 172.5 45.0 94 53 0.0 10.2 3.3 21 0.00 0.00 0 0.0 0.0 - - - - - - - - - - - - 40.0 0047 13.4
4/2/24 76.9 1530 43.4 0604 0.00 0.00 12.74 13.2 1725 NW | 314 57.0 40.0 87 21 0.0 4.8 10.2 18 6.65 0.00 0 0.0 2.2 - - - - - - - - - - - - 41.4 0606 13.2
4/1/24 71.7 1754 39.8 0638 0.00 0.00 12.74 16.7 1425 ENE | 69 73.9 38.4 95 22 0.0 9.2 7.8 8 1.90 0.00 0 0.0 6.8 - - - - - - - - - - - - 37.4 0619 13.3
3/31/24 65.1 1442 41.4 0419 0.00 2.76 12.74 19.7 1638 SW | 235 84.5 42.4 90 39 0.0 11.7 4.3 - 0.00 0.00 0 0.0 5.7 666 - - - - - - - - - - - 39.9 0418 13.4
3/30/24 60.0 1424 43.2 0618 0.01 2.76 12.74 21.9 1728 NE | 36 142.9 41.3 86 42 0.0 13.4 3.2 - 0.00 0.00 0 0.0 2.9 660 0.17 0.01 0101 0.01 0143 0.01 0157 0.01 0242 - - 39.0 0556 13.5
3/29/24 56.0 1216 43.0 0235 0.16 2.75 12.73 20.0 1350 ESE | 122 75.5 39.7 89 41 0.0 15.5 1.1 - 0.00 0.00 0 0.0 5.3 657 0.16 0.18 1559 0.01 0034 0.04 1605 0.10 1618 - - 40.2 0231 13.5
3/28/24 61.2 1425 44.6 0059 0.01 2.59 12.57 21.0 0300 WSW | 256 124.8 41.3 93 27 0.0 12.1 2.9 - 0.00 0.00 0 0.0 0.4 652 0.10 0.21 0101 0.01 0107 0.07 0107 0.09 0128 - - 43.6 0421 13.4
3/27/24 60.8 1232 43.8 0345 0.09 2.58 12.56 21.7 0055 W | 267 96.8 45.6 94 43 0.0 12.7 3.8 - 0.00 0.00 0 0.0 2.8 651 - 1.80 0054 0.02 0055 0.06 0101 0.08 0101 - - 43.0 0304 13.5
3/26/24 62.2 1625 45.1 0059 0.00 2.49 12.47 17.1 1759 WSW | 244 127.1 44.0 90 50 0.0 11.4 3.2 - 0.00 0.00 0 0.0 0.0 648 - - - - - - - - - - - 42.6 2355 13.4
3/25/24 58.7 1409 46.3 0403 0.00 2.49 12.47 22.6 1601 SW | 230 153.1 43.4 93 52 0.0 12.5 2.5 - 0.00 0.00 0 0.0 0.0 648 - - - - - - - - - - - 42.7 0408 13.5
3/24/24 61.0 1441 47.0 0027 0.05 2.49 12.47 20.8 0949 W | 264 147.2 43.8 94 42 0.0 11.0 2.7 - 0.00 0.00 0 0.0 0.0 648 0.90 0.09 0206 0.01 1214 0.03 0215 0.03 0306 - - 41.3 0300 13.4
3/23/24 57.5 1525 47.4 0024 0.56 2.44 12.42 27.0 1621 SW | 223 119.8 44.8 94 51 0.0 12.5 1.3 - 0.00 0.00 0 0.0 0.0 648 0.85 3.60 1258 0.05 1259 0.14 2136 0.17 2139 - - 43.2 1124 13.5
3/22/24 65.5 1244 46.7 0557 0.29 1.88 11.86 25.4 2117 WSW | 251 137.8 46.1 94 48 0.0 8.9 5.5 - 0.00 0.00 0 0.0 0.0 648 0.29 0.22 2114 0.01 0040 0.05 2119 0.12 0048 - - 43.0 2129 13.4
3/21/24 68.2 1532 47.1 0300 0.00 1.59 11.57 17.5 1539 NW | 307 84.2 45.8 90 39 0.0 7.3 6.8 - 0.00 0.00 0 0.0 0.0 648 - - - - - - - - - - - 44.9 0155 13.3
3/20/24 71.6 1519 43.8 0717 0.00 1.59 11.57 19.5 1859 WNW | 290 102.1 41.1 93 18 0.0 7.3 7.5 - 2.78 0.00 0 0.0 1.4 648 - - - - - - - - - - - 43.6 0742 13.3
3/19/24 74.5 1524 49.1 0338 0.00 1.59 11.57 16.7 1620 WSW | 237 101.0 45.5 94 20 0.0 3.2 7.6 - 3.86 0.00 0 0.0 0.0 647 - - - - - - - - - - - 46.1 0311 13.3
3/18/24 75.9 1633 43.5 0746 0.00 1.59 11.57 11.6 1801 W | 265 58.2 45.2 93 29 0.0 5.3 9.2 - 4.49 0.00 0 0.0 2.5 647 - - - - - - - - - - - 41.1 0749 13.2
3/17/24 73.0 1438 42.0 0700 0.00 1.59 11.57 15.6 1721 WSW | 255 75.6 44.8 94 34 0.0 7.5 7.3 - 3.16 0.00 0 0.0 2.2 645 - - - - - - - - - - - 40.1 0719 13.3
3/16/24 71.5 1434 42.2 0642 0.00 1.59 11.57 16.4 1639 WSW | 256 94.3 38.5 88 24 0.0 8.2 7.9 - 2.83 0.00 0 0.0 3.4 642 - - - - - - - - - - - 40.4 0639 13.3
3/15/24 70.7 1559 47.2 0007 0.00 1.59 11.57 37.7 0203 NNE | 23 246.1 28.3 66 18 0.0 6.0 10.9 - 0.36 0.00 0 0.0 0.0 639 - - - - - - - - - - - 44.7 0006 13.3
3/14/24 65.2 1620 52.7 0723 0.00 1.59 11.57 31.6 0922 NNE | 21 301.2 23.4 35 18 0.0 6.1 9.0 - 0.00 0.00 0 0.0 0.0 639 - - - - - - - - - - - - - 13.4
3/13/24 64.4 1715 40.2 0623 0.00 1.59 11.57 21.0 1615 N | 8 113.6 34.2 90 20 0.0 12.7 5.9 - 0.00 0.00 0 0.0 5.5 639 - - - - - - - - - - - 37.6 0624 13.4
3/12/24 60.7 1633 47.4 0058 0.04 1.59 11.57 18.8 1647 SW | 226 118.6 45.5 91 53 0.0 10.9 3.2 - 0.00 0.00 0 0.0 0.0 634 0.10 0.02 0319 0.01 0729 0.01 0743 0.02 0343 - - 44.3 2357 13.5
3/11/24 60.2 1323 49.1 0841 0.06 1.55 11.53 20.2 1602 WSW | 241 104.8 42.8 94 42 0.0 10.4 3.2 - 0.00 0.00 0 0.0 0.0 634 - 0.05 0833 0.01 1201 0.02 0837 0.04 0851 - - 45.8 0926 13.4
3/10/24 63.3 1453 47.7 0743 0.00 1.49 11.47 18.2 1911 WNW | 300 105.5 39.9 86 24 0.0 9.5 4.1 - 0.00 0.00 0 0.0 0.0 634 - - - - - - - - - - - 45.3 0705 13.4
3/9/24 63.3 1451 42.4 0402 0.00 1.49 11.47 14.5 1338 WSW | 248 86.3 43.9 94 47 0.0 12.1 3.8 - 0.00 0.00 0 0.0 4.9 634 - - - - - - - - - - - 39.6 0440 13.4
3/8/24 69.4 1600 38.3 0619 0.00 1.49 11.47 18.0 1012 ENE | 59 64.9 36.3 93 20 0.0 11.1 5.2 - 0.00 0.00 0 0.0 8.1 629 - - - - - - - - - - - 35.7 0705 13.3
3/7/24 62.3 1602 41.8 2355 0.00 1.49 11.47 14.9 1734 W | 260 71.5 43.8 92 41 0.0 13.0 2.7 - 0.00 0.00 0 0.0 2.2 620 - - - - - - - - - - - 39.9 2351 13.4
3/6/24 59.1 1307 46.4 0436 0.20 1.49 11.47 11.6 2002 W | 260 53.1 45.8 94 58 0.0 12.2 1.5 - 0.00 0.00 0 0.0 0.0 618 0.20 0.53 1454 0.01 1544 0.09 1458 0.19 1537 - - 45.1 0148 13.5
3/5/24 59.7 1459 40.0 0507 0.00 1.29 11.27 18.4 1237 SSW | 209 80.8 43.2 91 57 0.0 15.2 3.4 - 0.00 0.00 0 0.0 6.9 618 - - - - - - - - - - - 36.7 0501 13.5
3/4/24 57.4 1554 40.1 0118 0.04 1.29 11.27 13.2 1127 S | 189 57.2 39.3 93 44 0.0 16.3 1.7 - 0.00 0.00 0 0.0 9.3 611 1.62 0.07 0250 0.01 0314 0.02 0256 0.04 0314 - - 34.3 0121 13.5
3/3/24 52.8 1339 41.2 2359 0.35 1.25 11.23 25.6 0146 SW | 227 104.2 40.5 93 53 0.0 18.0 0.1 - 0.00 0.00 0 0.0 11.2 602 1.58 0.95 1739 0.01 1918 0.08 1752 0.10 1837 - - 34.7 0838 13.6
3/2/24 52.0 1245 41.1 0739 0.45 0.90 10.88 36.4 2225 WSW | 257 199.3 39.7 93 51 0.0 18.5 0.1 - 0.00 0.00 0 0.0 6.2 591 1.23 2.77 2225 0.03 2227 0.10 0104 0.15 0127 - - 34.5 2230 13.6
3/1/24 57.2 1432 47.7 2247 0.45 0.45 10.43 34.4 1414 SSW | 195 254.7 44.9 94 56 0.0 12.6 1.8 - 0.00 0.00 0 0.0 0.0 585 0.78 2.77 2219 0.02 2220 0.06 2231 0.13 1827 - - 39.0 2238 13.5
2/29/24 58.1 1400 45.4 0332 0.33 3.34 9.98 38.8 1605 SSW | 210 204.0 45.6 95 62 0.0 13.3 2.6 - 0.00 0.00 - 0.0 0.0 585 0.33 0.95 1759 0.02 1800 0.14 1803 0.25 1847 - - 41.7 0341 13.5
2/28/24 70.6 1549 35.8 0622 0.00 3.01 9.65 12.3 1700 WNW | 287 59.3 34.2 89 18 0.0 11.8 5.5 - 0.16 0.00 - 0.0 8.1 585 - - - - - - - - - - - 32.5 0616 13.3
2/27/24 61.9 1623 40.9 2359 0.00 3.01 9.65 15.3 0949 NE | 39 74.0 33.0 91 23 0.0 13.6 3.4 - 0.00 0.00 - 0.0 7.2 577 - - - - - - - - - - - 37.5 0342 13.4
2/26/24 61.8 1401 43.9 0505 0.00 3.01 9.65 18.4 1546 WSW | 238 98.1 46.5 94 63 0.0 12.1 3.5 - 0.00 0.00 - 0.0 1.1 569 - - - - - - - - - - - 41.6 0507 13.4
2/25/24 68.7 1408 41.9 0652 0.00 3.01 9.65 20.0 1738 W | 271 76.2 42.5 89 35 0.0 9.7 5.9 - 0.00 0.00 - 0.0 4.0 568 - - - - - - - - - - - 39.2 0653 13.3
2/24/24 68.5 1439 42.4 0620 0.00 3.01 9.65 16.2 1302 ENE | 62 83.0 41.6 85 35 0.0 9.6 6.4 - 0.00 0.00 - 0.0 4.3 564 - - - - - - - - - - - 41.0 0736 13.3
2/23/24 63.7 1557 41.6 0604 0.00 3.01 9.65 20.4 1136 ENE | 73 104.7 41.2 94 38 0.0 12.3 3.6 - 0.00 0.00 - 0.0 6.0 560 - - - - - - - - - - - 40.1 0645 13.4
2/22/24 60.9 1454 39.7 0634 0.00 3.01 9.65 15.1 1600 NE | 56 79.3 43.7 96 55 0.0 14.7 3.2 - 0.00 0.00 - 0.0 8.1 554 - - - - - - - - - - - 36.9 0629 13.4
2/21/24 61.7 1302 42.0 0656 0.02 3.01 9.65 14.2 1618 WSW | 245 65.0 44.3 98 41 0.0 13.2 2.9 - 0.00 0.00 - 0.0 3.5 546 1.13 0.12 0001 0.01 1211 0.01 1225 0.08 0002 - - 39.4 0611 13.4
2/20/24 60.6 1229 45.8 0701 0.27 2.99 9.63 28.7 1403 SSW | 202 57.5 45.1 95 47 0.0 11.8 2.5 - 0.00 0.00 - 0.0 0.0 542 1.11 0.32 2300 0.01 2326 0.06 2313 0.11 1611 - - 43.8 0657 13.5
2/19/24 62.4 1133 53.1 0218 0.24 2.72 9.36 32.0 1507 SW | 218 173.9 47.9 94 56 0.0 7.3 6.3 - 0.00 0.00 - 0.0 0.0 542 0.84 1.80 1751 0.03 1752 0.12 1802 0.17 1824 - - - - 13.4
2/18/24 70.4 1310 44.7 0431 0.42 2.48 9.12 23.0 1349 S | 186 97.4 48.0 96 37 0.0 7.5 7.7 - 0.05 0.00 - 0.0 0.1 542 0.60 0.97 2154 0.02 2207 0.13 2207 0.25 2225 - - 41.6 0433 13.3
2/17/24 58.7 1529 47.3 0632 0.18 2.06 8.70 16.2 1544 SSW | 209 66.6 47.8 93 63 0.0 12.0 2.6 - 0.00 0.00 - 0.0 0.0 542 0.18 0.10 2017 0.01 2122 0.02 2048 0.05 2111 - - 43.4 0527 13.5
2/16/24 58.3 1405 44.5 0456 0.00 1.88 8.52 14.0 1455 NE | 54 80.5 45.7 92 62 0.0 13.6 2.6 - 0.00 0.00 - 0.0 1.3 542 - - - - - - - - - - - 41.8 0451 13.5
2/15/24 63.9 1429 44.7 0421 0.00 1.88 8.52 10.5 1431 NE | 54 53.3 44.6 94 45 0.0 10.7 4.0 - 0.00 0.00 - 0.0 0.1 541 - 0.01 0001 - - - - 0.01 0045 - - 42.5 0424 13.4
2/14/24 58.8 1202 42.6 0033 0.12 1.88 8.52 24.3 1812 SSW | 193 92.0 45.4 94 59 0.0 14.3 2.5 - 0.00 0.00 - 0.0 4.2 541 0.12 0.32 1932 0.01 2346 0.04 1942 0.07 1951 - - 40.3 0040 13.5
2/13/24 60.3 1326 37.4 0408 0.00 1.76 8.40 12.9 1505 W | 262 62.8 41.0 94 50 0.0 16.1 2.2 - 0.00 0.00 - 0.0 10.4 537 - - - - - - - - - - - 34.1 0352 13.4
2/12/24 60.1 1511 36.2 0609 0.00 1.76 8.40 13.4 1203 ENE | 65 59.6 37.7 90 43 0.0 16.8 2.4 - 0.00 0.00 - 0.0 12.2 526 - - - - - - - - - - - 34.5 0612 13.4
2/11/24 61.2 1452 36.0 0309 0.00 1.76 8.40 12.5 1545 NE | 56 58.9 37.0 87 38 0.0 16.4 2.4 - 0.00 0.00 - 0.0 10.9 514 - - - - - - - - - - - 32.0 0307 13.4
2/10/24 58.9 1523 38.1 0650 0.00 1.76 8.40 23.0 1211 ENE | 63 84.1 33.3 93 28 0.0 16.5 2.4 - 0.00 0.00 - 0.0 12.4 503 - - - - - - - - - - - 35.6 0318 13.5
2/9/24 57.2 1353 35.3 0723 0.00 1.76 8.40 12.1 1448 NNW | 328 44.2 36.7 95 44 0.0 18.7 1.1 - 0.00 0.00 - 0.0 13.5 491 - - - - - - - - - - - 30.9 0423 13.5
2/8/24 56.2 1415 36.4 0724 0.00 1.76 8.40 14.9 1543 NE | 53 66.1 36.8 91 46 0.0 18.7 0.7 - 0.00 0.00 - 0.0 12.5 477 - - - - - - - - - - - 35.8 0533 13.5
2/7/24 49.9 1558 41.8 0514 0.41 1.76 8.40 25.4 1605 W | 277 117.1 39.9 91 60 0.0 19.2 0.0 - 0.00 0.00 - 0.0 7.6 465 0.41 0.31 1111 0.01 1454 0.05 1124 0.12 1313 - - 37.7 0348 13.6
2/6/24 58.4 1545 45.8 0742 0.00 1.35 7.99 13.8 1614 WSW | 257 52.7 43.7 96 54 0.0 12.9 1.3 - 0.00 0.00 - 0.0 0.0 457 - - - - - - - - - - - 43.0 2322 13.5
2/5/24 57.9 1212 46.9 2326 0.07 1.35 7.99 22.6 0022 SSW | 198 102.3 44.6 92 54 0.0 12.6 2.2 - 0.00 0.00 - 0.0 0.0 457 0.75 0.14 0522 0.01 0823 0.03 0533 0.04 0618 - - 45.2 0849 13.5
2/4/24 64.1 1408 46.1 0032 0.39 1.28 7.92 48.2 1833 SSW | 207 245.9 45.4 88 55 0.0 9.9 4.3 - 0.00 0.00 - 0.0 0.0 457 0.68 1.20 1542 0.02 1543 0.07 1826 0.11 0126 - - 38.1 0035 13.4
2/3/24 52.6 1218 43.2 0649 0.29 0.89 7.53 20.2 2337 E | 85 93.3 41.2 90 59 0.0 17.1 0.4 - 0.00 0.00 - 0.0 6.6 457 0.29 0.13 2347 0.01 2356 0.03 2357 0.10 2358 - - 38.8 2337 13.6
2/2/24 55.9 1504 43.1 2104 0.28 0.60 7.24 25.2 1428 SW | 236 93.1 42.5 95 46 0.0 15.5 1.0 - 0.00 0.00 - 0.0 3.3 451 1.07 0.29 0137 0.01 0900 0.06 0212 0.12 0243 - - 38.9 2124 13.5
2/1/24 60.0 1313 48.3 2350 0.32 0.32 6.96 21.7 1342 WNW | 294 67.6 46.0 94 50 0.0 10.8 2.0 - 0.00 0.00 - 0.0 0.0 447 0.79 0.29 0043 0.01 2220 0.07 0052 0.22 0059 - - 45.2 0543 13.4
1/31/24 60.4 1542 51.3 0234 0.47 3.42 6.64 25.4 1728 E | 101 103.2 42.3 92 41 0.0 9.1 6.7 - 0.00 0.00 - 0.0 0.0 447 0.47 1.03 2111 0.02 2112 0.12 2119 0.25 2147 - - - - 13.5
1/30/24 72.0 1422 49.1 0458 0.00 2.95 6.17 17.5 1522 SW | 223 62.9 46.9 94 27 0.0 4.5 7.8 - 0.97 0.00 - 0.0 0.0 447 - - - - - - - - - - - 46.5 0456 13.3
1/29/24 77.0 1330 45.1 0657 0.00 2.95 6.17 12.7 1437 E | 83 49.0 49.6 96 36 0.0 3.9 7.9 - 2.35 0.00 - 0.0 0.0 447 - - - - - - - - - - - 43.6 0622 13.3
1/28/24 65.4 1316 49.3 0728 0.00 2.95 6.17 19.5 1013 ENE | 60 119.7 47.7 90 53 0.0 7.7 6.5 - 0.00 0.00 - 0.0 0.0 447 - - - - - - - - - - - 46.5 0513 13.4
1/27/24 64.7 1350 48.5 0239 0.00 2.95 6.17 18.8 1540 NE | 54 97.0 47.4 93 52 0.0 8.4 4.9 - 0.00 0.00 - 0.0 0.0 447 - - - - - - - - - - - 47.0 0625 13.4
1/26/24 60.3 1315 46.0 0243 0.00 2.95 6.17 13.8 1006 ENE | 64 86.5 47.2 94 62 0.0 11.8 3.7 - 0.00 0.00 - 0.0 0.0 447 - - - - - - - - - - - 44.7 0243 13.5
1/25/24 62.1 1514 44.0 0714 0.00 2.95 6.17 13.6 1728 W | 271 63.7 46.2 96 47 0.0 12.0 3.3 - 0.00 0.00 - 0.0 0.6 447 - - - - - - - - - - - 41.8 0707 13.4
1/24/24 59.6 1335 50.2 0721 0.39 2.95 6.17 15.6 2311 W | 261 71.5 50.4 96 74 0.0 10.1 4.2 - 0.00 0.00 - 0.0 0.0 447 0.39 0.36 0741 0.01 1011 0.08 0746 0.22 0800 - - - - 13.5
1/23/24 62.3 1316 50.3 1950 0.00 2.56 5.78 21.3 1625 WSW | 256 76.1 49.4 96 58 0.0 8.7 4.1 - 0.00 0.00 - 0.0 0.0 447 - - - - - - - - - - - - - 13.4
1/22/24 60.0 1324 52.9 0332 0.90 2.56 5.78 14.0 1531 W | 259 85.0 52.0 96 67 0.0 8.5 5.3 - 0.00 0.00 - 0.0 0.0 447 1.57 0.51 0246 0.01 1141 0.10 0252 0.28 0324 - - - - 13.5
1/21/24 63.4 1153 50.3 0312 0.26 1.66 4.88 20.0 1239 SW | 219 77.4 49.0 93 58 0.0 8.2 6.3 - 0.00 0.00 - 0.0 0.0 447 0.67 0.22 2104 0.01 2358 0.05 2127 0.14 2154 - - - - 13.4
1/20/24 61.4 1124 49.6 0634 0.40 1.40 4.62 19.7 1122 S | 190 89.1 49.4 97 62 0.0 9.5 4.2 - 0.00 0.00 - 0.0 0.0 447 0.41 2.25 0258 0.03 0300 0.16 0311 0.29 0337 - - 47.7 0635 13.5
1/19/24 55.0 2031 45.2 0721 0.01 1.00 4.22 18.2 1200 ENE | 59 84.7 47.2 95 75 0.0 14.9 1.2 - 0.00 0.00 - 0.0 0.0 447 - 0.01 1640 0.01 1641 0.01 1655 0.01 1740 - - 42.1 0732 13.6
1/18/24 55.6 1244 40.2 0435 0.01 0.99 4.21 18.4 1007 NE | 54 100.0 44.3 95 68 0.0 17.1 1.4 - 0.00 0.00 - 0.0 8.3 447 - 0.01 0942 0.01 0943 0.01 0957 0.01 1042 - - 37.6 0714 13.5
1/17/24 62.7 1437 43.2 2325 0.00 0.98 4.20 11.0 1026 WNW | 294 67.0 46.9 97 51 0.0 12.0 3.8 - 0.00 0.00 - 0.0 1.7 438 - - - - - - - - - - - 41.6 2323 13.4
1/16/24 55.8 1336 44.8 0133 0.41 0.98 4.20 17.5 0954 ENE | 62 114.3 47.1 97 73 0.0 14.7 1.1 - 0.00 0.00 - 0.0 0.2 437 0.41 0.32 1921 0.01 2156 0.06 1934 0.20 1939 - - 40.4 0436 13.5
1/15/24 58.8 1521 46.1 2254 0.00 0.57 3.79 17.8 1512 ENE | 62 106.1 44.8 94 56 0.0 12.5 1.4 - 0.00 0.00 - 0.0 0.0 437 - - - - - - - - - - - 42.2 2239 13.5
1/14/24 62.1 1349 46.3 2216 0.03 0.57 3.79 13.2 2128 ENE | 71 86.8 47.8 96 54 0.0 10.8 3.1 - 0.00 0.00 - 0.0 0.0 437 0.30 0.02 0158 0.01 0159 0.01 0213 0.02 0223 - - 41.2 2128 13.4
1/13/24 54.8 1611 42.3 0305 0.27 0.54 3.76 16.0 1850 SSW | 198 68.2 44.7 95 73 0.0 16.5 1.1 - 0.00 0.00 - 0.0 10.0 437 0.27 0.14 2116 0.01 2303 0.03 2127 0.07 2022 - - 40.5 0953 13.6
1/12/24 51.9 1415 32.8 0342 0.00 0.27 3.49 9.6 1921 NW | 304 47.4 34.8 89 52 0.0 22.7 0.2 - 0.00 0.00 - 0.0 13.4 427 - - - - - - - - - - - 28.6 0341 13.6
1/11/24 55.4 1550 31.1 0725 0.00 0.27 3.49 16.0 0003 WNW | 289 64.2 29.0 89 24 0.0 21.7 0.6 - 0.00 0.00 - 0.8 16.7 413 - - - - - - - - - - - 26.9 0750 13.5
1/10/24 51.3 1708 34.7 0524 0.13 0.27 3.49 25.9 1817 SW | 218 138.7 40.4 93 69 0.0 22.0 0.1 - 0.00 0.00 - 0.0 9.7 396 0.13 0.40 1635 0.01 2041 0.04 1647 0.05 1732 - - 30.6 0519 13.6
1/9/24 55.8 1513 42.3 2356 0.00 0.14 3.36 20.8 1457 WSW | 247 93.4 40.8 89 59 0.0 16.0 1.1 - 0.00 0.00 - 0.0 10.0 387 - - - - - - - - - - - 38.5 2356 13.6
1/8/24 57.8 1535 30.8 0554 0.03 0.14 3.36 9.9 1403 WSW | 251 45.5 30.2 90 31 0.0 20.8 1.2 - 0.00 0.00 - 2.2 14.8 377 - 0.28 1043 0.02 1044 0.03 1056 0.03 1141 - - 26.5 0548 13.5
1/7/24 53.4 1427 30.1 0457 0.06 0.11 3.33 12.7 1556 WNW | 286 56.6 29.4 93 34 0.0 23.3 0.3 - 0.00 0.00 - 4.0 17.0 362 - 0.03 1024 0.01 1746 0.01 1800 0.03 1107 - - 24.2 0456 13.5
1/6/24 54.1 1254 35.6 0502 0.00 0.05 3.27 24.8 1446 SSW | 213 88.5 34.6 94 41 0.0 20.2 0.3 - 0.00 0.00 - 0.0 14.2 345 - - - - - - - - - - - 32.0 0504 13.6
1/5/24 61.7 1458 40.4 2346 0.01 0.05 3.27 20.8 1512 NNE | 26 64.8 39.9 97 29 0.0 14.0 2.6 - 0.00 0.00 - 0.0 2.4 331 - 0.01 2003 0.01 2004 0.01 2018 0.01 2103 - - 37.5 2357 13.4
1/4/24 59.7 1402 36.8 0416 0.01 0.04 3.26 13.4 1631 W | 279 66.6 40.3 96 42 0.0 16.8 2.0 - 0.00 0.00 - 0.0 10.1 328 - 0.01 1319 0.01 1320 0.01 1334 0.01 1419 - - 33.0 0500 13.5
1/3/24 53.9 1337 39.6 0001 0.01 0.03 3.25 23.4 0022 WNW | 282 69.4 41.9 95 62 0.0 18.3 0.5 - 0.00 0.00 - 0.0 10.5 318 - 0.01 1109 0.01 1110 0.01 1124 0.01 1209 - - 36.4 2349 13.6
1/2/24 61.7 1401 40.4 0323 0.01 0.02 3.24 27.8 1737 S | 181 88.4 43.0 95 38 0.0 14.0 2.5 - 0.00 0.00 - 0.0 8.5 308 0.56 0.01 0940 0.01 0941 0.01 0955 0.01 1040 - - 37.5 0732 13.5
1/1/24 63.3 1449 43.3 0503 0.01 0.01 3.23 11.4 1231 NE | 55 40.3 44.4 96 48 0.0 11.7 2.9 - 0.00 0.00 - 0.0 5.5 299 0.55 0.01 1041 0.01 1041 0.01 1055 0.01 1140 - - 41.3 0506 13.4
12/31/23 56.2 1323 45.1 0146 0.03 2.46 3.22 13.4 1302 ENE | 66 51.3 47.1 97 75 0.0 14.4 1.4 - 0.00 0.00 - 0.0 0.0 294 0.54 0.01 0001 0.01 1949 0.01 2003 0.01 2048 - - 42.9 0140 13.5
12/30/23 60.4 1329 47.4 2329 0.25 2.43 3.19 13.2 1619 WNW | 283 68.3 49.8 96 67 0.0 11.1 3.4 - 0.00 0.00 - 0.0 0.0 294 0.51 0.04 0001 0.01 2342 0.01 2356 0.04 0114 - - 47.4 2329 13.4
12/29/23 67.4 1418 51.0 0603 0.26 2.18 2.94 24.3 1654 SW | 222 81.8 51.6 96 51 0.0 5.8 7.0 - 0.00 0.00 - 0.0 0.0 294 0.26 0.12 1721 0.01 2358 0.02 2256 0.06 1816 - - - - 13.4
12/28/23 67.6 1345 45.8 0558 0.00 1.92 2.68 12.1 1608 ENE | 58 64.8 50.9 96 63 0.0 8.3 5.4 - 0.00 0.00 - 0.0 0.0 294 - - - - - - - - - - - 44.2 0701 13.4
12/27/23 62.3 1306 44.0 0732 0.07 1.92 2.68 27.2 1329 SSW | 195 102.3 47.4 95 58 0.0 11.8 4.3 - 0.00 0.00 - 0.0 2.2 294 - 0.08 1754 0.01 2127 0.02 1802 0.03 2145 - - 39.7 0731 13.4
12/26/23 56.6 1334 42.7 0349 0.00 1.85 2.61 15.3 1113 ENE | 62 76.7 43.9 93 65 0.0 15.3 1.1 - 0.00 0.00 - 0.0 6.1 292 - - - - - - - - - - - 39.8 0350 13.5
12/25/23 60.1 1405 38.2 0748 0.00 1.85 2.61 15.3 1215 NE | 52 53.9 40.7 93 52 0.0 15.9 1.8 - 0.00 0.00 - 0.0 9.6 285 - - - - - - - - - - - 36.0 0429 13.5
12/24/23 61.3 1432 34.3 0630 0.00 1.85 2.61 9.9 1530 E | 86 49.4 36.1 91 33 0.0 17.2 1.7 - 0.00 0.00 - 0.0 12.9 276 - - - - - - - - - - - 29.9 0628 13.5
12/23/23 62.9 1406 39.2 2359 0.00 1.85 2.61 11.4 0907 E | 82 51.4 33.7 94 27 0.0 14.0 2.7 - 0.00 0.00 - 0.0 6.2 263 - - - - - - - - - - - 37.1 2359 13.4
12/22/23 66.4 1425 44.3 0746 0.00 1.85 2.61 12.7 1254 WSW | 252 58.2 48.5 96 53 0.0 9.7 4.8 - 0.00 0.00 - 0.0 0.3 257 - - - - - - - - - - - 42.4 0740 13.4
12/21/23 61.2 1520 47.6 0806 0.00 1.85 2.61 16.0 0344 NE | 56 85.1 49.2 95 65 0.0 10.6 4.0 - 0.00 0.00 - 0.0 0.0 256 - - - - - - - - - - - 47.2 0630 13.5
12/20/23 60.6 0237 52.0 0827 0.50 1.85 2.61 20.4 1922 ENE | 60 139.5 49.3 93 59 0.0 8.7 5.0 - 0.00 0.00 - 0.0 0.0 256 1.70 0.21 0816 0.01 1631 0.05 0821 0.13 1022 - - - - 13.5
12/19/23 65.3 1240 54.1 2340 0.44 1.35 2.11 20.8 1508 SSW | 199 102.5 53.4 96 61 0.0 5.3 9.5 - 0.00 0.00 - 0.0 0.0 256 1.20 0.21 0606 0.01 0909 0.05 0630 0.20 0630 - - - - 13.4
12/18/23 67.6 1342 47.0 0619 0.71 0.91 1.67 26.1 1403 SSW | 204 137.8 50.8 94 64 0.0 7.7 6.5 - 0.00 0.00 - 0.0 0.0 256 0.76 0.31 1809 0.01 1817 0.06 1819 0.18 0716 - - 39.8 0620 13.4
12/17/23 57.7 1243 44.4 0049 0.05 0.20 0.96 26.1 1428 ENE | 64 102.7 39.6 86 47 0.0 14.0 1.8 - 0.00 0.00 - 0.0 2.3 256 - 0.04 1404 0.01 1645 0.01 1659 0.04 1431 - - 41.9 0741 13.5
12/16/23 64.5 1431 36.2 0644 0.00 0.15 0.91 16.7 1245 ENE | 76 71.2 33.5 83 31 0.0 14.7 3.5 - 0.00 0.00 - 0.0 9.2 254 - - - - - - - - - - - 32.1 0643 13.4
12/15/23 59.5 1255 38.6 0748 0.00 0.15 0.91 20.0 1314 ENE | 66 71.2 35.7 85 41 0.0 16.0 2.1 - 0.00 0.00 - 0.0 10.7 245 - - - - - - - - - - - 34.7 0426 13.5
12/14/23 60.6 1228 36.2 0659 0.00 0.15 0.91 16.9 1600 ENE | 58 63.8 36.6 89 44 0.0 16.6 1.6 - 0.00 0.00 - 0.0 12.8 234 - - - - - - - - - - - 32.4 0700 13.5
12/13/23 62.4 1345 37.2 0616 0.00 0.15 0.91 16.9 1210 ENE | 69 74.1 36.4 87 35 0.0 15.2 2.7 - 0.00 0.00 - 0.0 10.2 222 - - - - - - - - - - - 33.3 0517 13.4
12/12/23 65.6 1435 35.8 0735 0.00 0.15 0.91 16.2 1205 N | 1 60.6 36.5 94 34 0.0 14.3 3.2 - 0.00 0.00 - 0.0 12.7 211 - - - - - - - - - - - 32.4 0414 13.4
12/11/23 65.1 1544 33.7 0437 0.00 0.15 0.91 7.0 1225 SW | 224 35.0 33.4 91 29 0.0 15.6 3.0 - 0.00 0.00 - 0.0 12.7 199 - - - - - - - - - - - 28.7 0434 13.4
12/10/23 56.9 1343 35.9 0608 0.00 0.15 0.91 18.4 1215 ENE | 66 69.2 35.0 86 47 0.0 18.6 1.4 - 0.00 0.00 - 0.0 14.7 186 - - - - - - - - - - - 34.4 2347 13.5
12/9/23 58.0 1354 39.6 0640 0.00 0.15 0.91 18.0 1042 NE | 55 84.9 27.5 72 24 0.0 16.2 1.7 - 0.00 0.00 - 0.0 7.5 171 - - - - - - - - - - - 37.7 0627 13.5
12/8/23 57.8 1331 35.4 0639 0.01 0.15 0.91 15.3 1517 N | 354 65.9 33.1 96 29 0.0 18.4 1.3 - 0.00 0.00 - 0.0 12.3 164 0.13 0.01 0633 0.01 0634 0.01 0648 0.01 0733 - - 31.3 0725 13.5
12/7/23 58.8 1317 40.9 2357 0.07 0.14 0.90 19.5 1313 SW | 231 81.2 44.8 96 50 0.0 15.1 1.8 - 0.00 0.00 - 0.0 5.0 152 0.12 0.59 1455 0.01 1459 0.06 1459 0.06 1544 - - 38.6 2306 13.5
12/6/23 62.5 1206 41.4 0525 0.05 0.07 0.83 20.8 1641 SW | 236 87.6 47.4 96 60 0.0 13.0 4.0 - 0.00 0.00 - 0.0 5.2 146 - 0.42 1732 0.01 1741 0.04 1745 0.04 1830 - - 38.9 0511 13.4
12/5/23 64.6 1234 42.9 0546 0.00 0.02 0.78 21.9 1250 NE | 49 106.7 45.9 94 53 0.0 11.2 5.6 - 0.00 0.00 - 0.0 5.2 141 - - - - - - - - - - - 40.0 0546 13.4
12/4/23 64.4 1501 44.3 0532 0.00 0.02 0.78 16.2 1328 NE | 47 54.1 47.2 97 59 0.0 10.7 4.1 - 0.00 0.00 - 0.0 0.6 136 - - - - - - - - - - - 42.5 0526 13.4
12/3/23 63.2 1229 46.2 0732 0.00 0.02 0.78 12.5 1232 WNW | 291 55.3 48.8 96 55 0.0 10.4 5.8 - 0.00 0.00 - 0.0 0.0 136 - - - - - - - - - - - 44.3 0732 13.4
12/2/23 59.0 1444 50.8 0440 0.02 0.02 0.78 12.5 1203 SSW | 207 60.3 50.4 93 73 0.0 10.1 4.9 - 0.00 0.00 - 0.0 0.0 136 - 0.01 0238 0.01 1216 0.01 1230 0.01 1315 - - - - 13.5
12/1/23 60.0 1507 40.4 0633 0.00 0.00 0.76 16.0 1351 WSW | 238 96.7 39.7 85 38 0.0 14.8 2.8 - 0.00 0.00 - 0.0 3.9 136 - - - - - - - - - - - 37.4 0635 13.5
11/30/23 61.2 1337 40.3 0135 0.00 0.61 0.76 21.3 1436 SW | 231 111.9 41.8 90 46 0.0 14.2 2.9 - 0.00 0.00 - 0.0 8.2 132 - - - - - - - - - - - 37.4 0745 13.4
11/29/23 59.6 1452 40.7 2356 0.09 0.61 0.76 12.5 1351 ENE | 60 62.5 39.4 93 43 0.0 14.8 2.4 - 0.00 0.00 - 0.0 7.6 123 - 0.37 0113 0.01 0603 0.05 0128 0.07 0208 - - 37.6 0033 13.4
11/28/23 64.4 1312 34.0 0708 0.00 0.52 0.67 14.2 1543 ENE | 62 51.5 30.9 82 23 0.0 15.8 2.9 - 0.00 0.00 - 0.0 12.4 116 - - - - - - - - - - - 30.9 0450 13.4
11/27/23 60.0 1429 32.4 0629 0.00 0.52 0.67 20.2 1302 NE | 53 89.2 30.3 83 30 0.0 18.8 2.4 - 0.00 0.00 - 0.0 12.4 103 - - - - - - - - - - - 28.2 0401 13.5
11/26/23 57.6 1052 36.0 0534 0.00 0.52 0.67 16.0 1211 ENE | 72 56.3 27.4 72 29 0.0 18.2 1.8 - 0.00 0.00 - 0.0 14.2 91 - - - - - - - - - - - 33.0 0644 13.5
11/25/23 59.2 1410 39.6 2356 0.00 0.52 0.67 19.3 1208 ENE | 73 85.4 24.9 59 25 0.0 15.6 2.3 - 0.00 0.00 - 0.0 11.6 77 - - - - - - - - - - - 36.7 0234 13.5
11/24/23 57.9 1423 39.0 2344 0.00 0.52 0.67 20.0 1023 NE | 48 111.7